NIC weather

CLOSED Nicosia International Airport
Nicosia, Nicosia District, Cyprus

Public forecast

Using degrees Celsius for public forecast. Weather courtesy of forecast.io.

Closest aviation weather report (METAR) to Nicosia International Airport

Closest report is Ercan International Airport, 10.7 nm (19.8 km) E. Retrieved 2019/12/13 10:20 UTC (0 seconds ago):

LCEN 131020Z 10011KT 9999 FEW020CB BKN025 17/13 Q1009 NOSIG RMK RWY11 11010KT 090V170

Closest aviation forecast (TAF) to Nicosia International Airport

Closest forecast is Ercan International Airport, 10.7 nm (19.8 km) E. Retrieved 2019/12/13 06:03 UTC (4 hours ago):

TAF TAF LCEN 130440Z 1306/1406 22015KT 9999 FEW025 TEMPO 1306/1309 5000 SHRA FEW020CB BKN025 TEMPO 1309/1312 3000 TSRA FEW015CB BKN025 BKN080